Time;durP1;ratioP1;P1;durP2;ratioP2;P2;SDS_P1;SDS_P2;PMS_P1;PMS_P2;Temp;Humidity;BMP_temperature;BMP_pressure;BME280_temperature;BME280_humidity;BME280_pressure;Samples;Min_cycle;Max_cycle;Signal;HPM_P1;HPM_P2
2022/09/14 00:01:00;;;;;;;3.73;1.50;;;11.20;99.90;10.60;99078;;;;563435;250;24156;-76
2022/09/14 00:03:29;;;;;;;6.60;1.80;;;11.20;99.90;10.70;99063;;;;565431;254;24225;-77
2022/09/14 00:05:57;;;;;;;2.63;1.40;;;11.20;99.90;10.70;99068;;;;557234;254;24144;-75
2022/09/14 00:08:27;;;;;;;6.60;1.83;;;11.20;99.90;10.70;99066;;;;557141;254;24162;-76
2022/09/14 00:10:54;;;;;;;3.17;1.80;;;11.30;99.90;10.80;99068;;;;565493;254;24156;-75
2022/09/14 00:13:22;;;;;;;7.47;1.70;;;11.30;99.90;10.80;99057;;;;557037;254;24142;-76
2022/09/14 00:15:51;;;;;;;8.97;1.80;;;11.40;99.90;10.80;99052;;;;556982;254;24202;-76
2022/09/14 00:18:19;;;;;;;4.83;1.73;;;11.30;99.90;10.80;99049;;;;556864;254;24189;-76
2022/09/14 00:20:46;;;;;;;1.67;1.20;;;11.40;99.90;10.80;99043;;;;556857;254;24157;-76
2022/09/14 00:23:18;;;;;;;3.37;1.57;;;11.40;99.90;10.90;99050;;;;556778;254;24151;-75
2022/09/14 00:25:42;;;;;;;9.20;1.73;;;11.40;99.90;10.90;99040;;;;560459;254;24141;-76
2022/09/14 00:28:10;;;;;;;1.47;1.37;;;11.40;99.90;10.80;99042;;;;556881;254;24158;-76
2022/09/14 00:30:38;;;;;;;2.27;1.37;;;11.40;99.90;10.90;99035;;;;556729;254;24144;-77
2022/09/14 00:33:06;;;;;;;4.70;1.83;;;11.40;99.90;10.90;99033;;;;556509;254;24188;-76
2022/09/14 00:35:35;;;;;;;3.00;1.53;;;11.40;99.90;10.90;99037;;;;556990;254;24180;-78
2022/09/14 00:38:03;;;;;;;4.00;1.90;;;11.40;99.90;10.90;99040;;;;557321;254;24157;-75
2022/09/14 00:40:31;;;;;;;5.30;1.67;;;11.50;99.90;11.00;99048;;;;557403;254;24159;-77
2022/09/14 00:42:59;;;;;;;10.83;1.70;;;11.50;99.90;11.00;99032;;;;557191;254;24185;-76
2022/09/14 00:45:32;;;;;;;12.73;2.13;;;11.50;99.90;11.10;99035;;;;557118;254;24132;-77
2022/09/14 00:47:59;;;;;;;8.67;1.73;;;11.60;99.90;11.20;99036;;;;556990;254;24129;-79
2022/09/14 00:50:24;;;;;;;5.83;1.23;;;11.70;99.90;11.30;99031;;;;563601;252;24193;-77
2022/09/14 00:52:55;;;;;;;5.80;1.73;;;11.80;99.90;11.30;99036;;;;557633;254;24120;-79
2022/09/14 00:55:20;;;;;;;4.40;1.63;;;11.80;99.90;11.30;99028;;;;557065;254;24188;-76
2022/09/14 00:57:48;;;;;;;3.73;1.47;;;11.90;99.90;11.40;99033;;;;566172;252;24170;-76
2022/09/14 01:00:16;;;;;;;1.93;1.30;;;11.90;99.90;11.40;99028;;;;558840;254;24120;-76
2022/09/14 01:02:47;;;;;;;6.03;1.40;;;11.90;99.90;11.40;99024;;;;558215;254;24186;-77
2022/09/14 01:05:15;;;;;;;5.03;1.60;;;11.90;99.90;11.40;99023;;;;562036;254;24128;-76
2022/09/14 01:08:13;;;;;;;5.47;1.30;;;12.00;99.90;11.50;99021;;;;557242;254;24188;-75
2022/09/14 01:10:50;;;;;;;5.73;1.43;;;12.00;99.90;11.60;99021;;;;565595;250;24138;-75
2022/09/14 01:13:36;;;;;;;3.33;1.70;;;12.10;99.90;11.70;99025;;;;557150;254;24147;-75
2022/09/14 01:16:31;;;;;;;6.30;1.70;;;12.20;99.90;11.70;99015;;;;551851;254;24192;-76
2022/09/14 01:19:01;;;;;;;5.30;1.67;;;12.30;99.90;11.80;99013;;;;556797;254;24147;-76
2022/09/14 01:21:32;;;;;;;5.60;1.20;;;12.40;99.90;11.90;99013;;;;565070;254;24173;-76
2022/09/14 01:24:27;;;;;;;4.70;1.30;;;12.40;99.90;11.90;99012;;;;556772;254;24140;-77
2022/09/14 01:27:19;;;;;;;2.50;1.43;;;12.50;99.90;11.90;99011;;;;556716;254;24191;-76
2022/09/14 01:29:53;;;;;;;6.33;1.50;;;12.40;99.90;11.90;99000;;;;556593;254;24139;-76
2022/09/14 01:32:27;;;;;;;2.60;1.10;;;12.40;99.90;11.80;99002;;;;556483;254;24170;-77
2022/09/14 01:35:12;;;;;;;1.70;1.03;;;12.40;99.90;11.80;99003;;;;556254;254;24226;-76
2022/09/14 01:38:04;;;;;;;4.90;1.13;;;12.40;99.90;11.80;98998;;;;556668;254;24141;-74
2022/09/14 01:40:41;;;;;;;4.20;1.23;;;12.40;99.90;11.80;98999;;;;555511;254;24172;-76
2022/09/14 01:43:36;;;;;;;4.00;1.53;;;12.40;99.90;11.80;98992;;;;556404;254;24159;-76
2022/09/14 01:46:24;;;;;;;2.07;0.97;;;12.40;99.90;11.80;98992;;;;556684;254;24159;-76
2022/09/14 01:49:02;;;;;;;1.07;0.97;;;12.30;99.90;11.70;98996;;;;555947;254;24196;-77
2022/09/14 01:51:27;;;;;;;3.37;1.67;;;12.30;99.90;11.70;98998;;;;555905;254;24159;-76
2022/09/14 01:53:54;;;;;;;5.27;1.30;;;12.20;99.90;11.60;98997;;;;555716;254;24148;-76
2022/09/14 01:56:25;;;;;;;1.93;1.50;;;12.20;99.90;11.60;98990;;;;556651;254;24159;-76
2022/09/14 01:58:59;;;;;;;4.77;1.37;;;12.10;99.90;11.50;98996;;;;564487;250;24192;-75
2022/09/14 02:01:48;;;;;;;1.40;1.00;;;12.10;99.90;11.50;98997;;;;556456;254;24144;-75
2022/09/14 02:04:16;;;;;;;7.90;1.50;;;12.00;99.90;11.40;98989;;;;556698;254;24187;-74
2022/09/14 02:06:45;;;;;;;3.00;1.77;;;11.90;99.90;11.30;98993;;;;556000;254;24160;-75
2022/09/14 02:09:13;;;;;;;4.73;1.37;;;11.90;99.90;11.30;98990;;;;556805;253;24138;-75
2022/09/14 02:11:41;;;;;;;6.67;1.23;;;11.80;99.90;11.20;98987;;;;557629;254;24162;-75
2022/09/14 02:14:12;;;;;;;1.53;0.90;;;11.70;99.90;11.20;98979;;;;557225;254;24212;-76
2022/09/14 02:16:42;;;;;;;6.90;1.27;;;11.70;99.90;11.20;98983;;;;555354;254;24212;-76
2022/09/14 02:19:05;;;;;;;1.60;1.20;;;11.70;99.90;11.20;98973;;;;550174;257;24245;-76
2022/09/14 02:21:33;;;;;;;8.80;1.63;;;11.70;99.90;11.20;98973;;;;545912;259;24177;-76
2022/09/14 02:24:04;;;;;;;4.00;1.40;;;11.70;99.90;11.10;98973;;;;555407;254;24145;-76
2022/09/14 02:26:33;;;;;;;4.57;1.10;;;11.60;99.90;11.10;98969;;;;556674;255;24196;-76
2022/09/14 02:28:57;;;;;;;3.60;1.20;;;11.60;99.90;11.10;98966;;;;561107;252;24170;-76
2022/09/14 02:31:53;;;;;;;3.23;1.30;;;11.60;99.90;11.10;98972;;;;549996;256;24151;-77
2022/09/14 02:35:03;;;;;;;3.90;1.60;;;11.60;99.90;11.10;98968;;;;559368;252;24137;-76
2022/09/14 02:37:51;;;;;;;1.63;1.00;;;11.60;99.90;11.10;98947;;;;546020;262;24182;-75
2022/09/14 02:40:43;;;;;;;4.57;1.33;;;11.60;99.90;11.10;98952;;;;543428;263;24169;-76
2022/09/14 02:43:41;;;;;;;2.97;1.17;;;11.60;99.90;11.10;98956;;;;549997;256;24167;-76
2022/09/14 02:46:37;;;;;;;7.23;1.70;;;11.60;99.90;11.10;98959;;;;568704;252;24119;-76
2022/09/14 02:49:23;;;;;;;6.97;1.40;;;11.60;99.90;11.10;98958;;;;556504;254;24216;-75
2022/09/14 02:52:18;;;;;;;5.40;1.27;;;11.60;99.90;11.10;98959;;;;544971;259;24074;-76
2022/09/14 02:54:58;;;;;;;6.20;1.10;;;11.60;99.90;11.10;98951;;;;545980;259;24193;-77
2022/09/14 02:57:26;;;;;;;5.27;1.00;;;11.60;99.90;11.10;98954;;;;552449;255;24238;-76
2022/09/14 02:59:57;;;;;;;7.73;1.47;;;11.60;99.90;11.10;98951;;;;550865;256;24152;-76
2022/09/14 03:02:22;;;;;;;9.30;1.90;;;11.60;99.90;11.10;98945;;;;568676;252;24141;-77
2022/09/14 03:04:51;;;;;;;6.73;1.40;;;11.60;99.90;11.10;98946;;;;550712;256;24163;-75
2022/09/14 03:07:20;;;;;;;6.90;1.30;;;11.60;99.90;11.10;98941;;;;559347;252;24118;-77
2022/09/14 03:09:48;;;;;;;6.50;1.63;;;11.60;99.90;11.10;98947;;;;549676;256;24190;-77
2022/09/14 03:12:17;;;;;;;5.17;1.40;;;11.60;99.90;11.10;98935;;;;560003;252;24129;-77
2022/09/14 03:14:45;;;;;;;3.23;1.97;;;11.60;99.90;11.10;98934;;;;550130;256;24200;-78
2022/09/14 03:17:16;;;;;;;4.07;1.43;;;11.60;99.90;11.10;98936;;;;559503;252;24122;-77
2022/09/14 03:19:41;;;;;;;5.43;1.73;;;11.60;99.90;11.10;98932;;;;551034;256;24151;-75
2022/09/14 03:22:09;;;;;;;4.20;1.47;;;11.60;99.90;11.00;98929;;;;560888;251;24106;-77
2022/09/14 03:24:37;;;;;;;6.67;1.53;;;11.60;99.90;11.00;98932;;;;551053;256;24131;-77
2022/09/14 03:27:05;;;;;;;4.57;1.40;;;11.50;99.90;10.90;98932;;;;560858;252;24136;-77
2022/09/14 03:29:34;;;;;;;7.43;1.33;;;11.50;99.90;10.90;98939;;;;552746;256;24137;-76
2022/09/14 03:32:03;;;;;;;3.07;1.30;;;11.40;99.90;10.80;98943;;;;561582;252;24121;-78
2022/09/14 03:34:31;;;;;;;2.23;1.33;;;11.40;99.90;10.80;98956;;;;551552;256;24170;-77
2022/09/14 03:36:59;;;;;;;3.50;1.57;;;11.40;99.90;10.80;98950;;;;546049;259;24203;-75
2022/09/14 03:39:27;;;;;;;2.90;1.20;;;11.30;99.90;10.80;98951;;;;556267;254;24146;-76
2022/09/14 03:41:54;;;;;;;6.03;1.60;;;11.30;99.90;10.70;98941;;;;556375;254;24133;-76
2022/09/14 03:44:22;;;;;;;8.17;1.90;;;11.30;99.90;10.70;98935;;;;556483;254;24217;-76
2022/09/14 03:46:50;;;;;;;2.53;1.30;;;11.30;99.90;10.70;98934;;;;556398;254;24199;-76
2022/09/14 03:49:21;;;;;;;1.97;0.90;;;11.30;99.90;10.70;98938;;;;556756;254;24184;-80
2022/09/14 03:51:46;;;;;;;2.13;1.43;;;11.30;99.90;10.80;98931;;;;554653;259;24028;-76
2022/09/14 03:54:14;;;;;;;6.07;1.33;;;11.30;99.90;10.80;98920;;;;554974;259;24252;-75
2022/09/14 03:56:42;;;;;;;3.43;1.60;;;11.40;99.90;10.90;98919;;;;546423;259;24143;-80
2022/09/14 03:59:10;;;;;;;7.33;1.50;;;11.40;99.90;10.90;98925;;;;555988;254;24181;-76
2022/09/14 04:01:38;;;;;;;5.30;1.60;;;11.50;99.90;11.00;98920;;;;555883;254;24158;-76
2022/09/14 04:04:06;;;;;;;5.03;1.70;;;11.50;99.90;11.00;98933;;;;555681;254;24148;-76
2022/09/14 04:06:34;;;;;;;2.30;1.80;;;11.50;99.90;10.90;98926;;;;556088;254;24168;-76
2022/09/14 04:09:02;;;;;;;3.17;1.73;;;11.50;99.90;10.90;98942;;;;556586;254;24148;-76
2022/09/14 04:11:32;;;;;;;5.60;1.83;;;11.50;99.90;11.00;98937;;;;555059;255;24184;-75
2022/09/14 04:14:02;;;;;;;5.27;1.70;;;11.50;99.90;11.00;98939;;;;558197;253;24141;-77
2022/09/14 04:16:33;;;;;;;4.10;1.57;;;11.50;99.90;11.10;98937;;;;556124;254;24160;-75
2022/09/14 04:18:58;;;;;;;3.77;1.20;;;11.60;99.90;11.20;98942;;;;546819;259;24070;-79
2022/09/14 04:21:26;;;;;;;6.33;2.07;;;11.70;99.90;11.30;98937;;;;554768;252;25334;-75
2022/09/14 04:23:54;;;;;;;2.63;1.23;;;11.80;99.90;11.40;98939;;;;557017;251;24235;-79
2022/09/14 04:26:22;;;;;;;2.07;1.67;;;11.90;99.90;11.60;98947;;;;557527;254;24120;-80
2022/09/14 04:28:50;;;;;;;7.37;1.30;;;12.00;99.90;11.70;98938;;;;557374;253;24158;-79
2022/09/14 04:31:18;;;;;;;3.00;1.70;;;12.20;99.90;11.80;98939;;;;557315;254;24160;-79
2022/09/14 04:33:50;;;;;;;1.60;1.30;;;12.30;99.90;11.90;98938;;;;558541;253;24132;-80
2022/09/14 04:36:14;;;;;;;6.30;1.43;;;12.40;99.90;12.00;98937;;;;563911;254;24157;-77
2022/09/14 04:38:42;;;;;;;2.37;1.10;;;12.50;99.90;12.00;98943;;;;557509;254;24162;-76
2022/09/14 04:41:15;;;;;;;4.13;1.37;;;12.60;99.90;12.10;98954;;;;556760;254;24187;-77
2022/09/14 04:43:44;;;;;;;2.13;1.57;;;12.70;99.90;12.20;98948;;;;560156;254;24163;-76
2022/09/14 04:46:15;;;;;;;4.70;1.43;;;12.80;99.90;12.30;98957;;;;557152;254;24166;-75
2022/09/14 04:48:43;;;;;;;4.10;1.63;;;12.80;99.90;12.40;98950;;;;557114;254;24153;-77
2022/09/14 04:51:12;;;;;;;5.30;1.37;;;12.90;99.90;12.50;98957;;;;557629;254;24156;-82
2022/09/14 04:53:41;;;;;;;4.40;1.53;;;13.00;99.90;12.50;98949;;;;557240;254;24144;-81
2022/09/14 04:56:06;;;;;;;1.27;1.27;;;13.10;99.90;12.60;98960;;;;557179;254;24141;-80
2022/09/14 04:58:38;;;;;;;2.83;1.33;;;13.10;99.90;12.70;98962;;;;557569;254;24163;-81
2022/09/14 05:01:05;;;;;;;3.37;1.43;;;13.20;99.90;12.80;98965;;;;557143;254;24100;-80
2022/09/14 05:03:37;;;;;;;5.33;1.50;;;13.30;99.90;12.80;98970;;;;557448;254;24163;-81
2022/09/14 05:06:02;;;;;;;4.43;1.03;;;13.40;99.90;12.90;98970;;;;564946;254;24155;-78
2022/09/14 05:08:34;;;;;;;3.73;1.40;;;13.40;99.90;12.90;98964;;;;556849;254;24172;-81
2022/09/14 05:10:58;;;;;;;4.10;1.43;;;13.50;99.90;13.00;98957;;;;564362;250;24148;-78
2022/09/14 05:13:26;;;;;;;8.27;1.40;;;13.50;99.90;13.00;98960;;;;556586;254;24182;-79
2022/09/14 05:15:55;;;;;;;5.50;1.43;;;13.50;99.90;13.00;98961;;;;556683;254;24225;-79
2022/09/14 05:18:23;;;;;;;6.57;1.17;;;13.50;99.90;12.90;98960;;;;556828;254;24122;-79
2022/09/14 05:20:51;;;;;;;1.77;1.10;;;13.40;99.90;13.00;98968;;;;556258;254;24194;-78
2022/09/14 05:23:19;;;;;;;3.57;1.20;;;13.50;99.90;13.10;98980;;;;556440;254;24119;-77
2022/09/14 05:25:47;;;;;;;2.63;1.00;;;13.60;99.90;13.10;98972;;;;556487;254;24222;-76
2022/09/14 05:28:16;;;;;;;6.70;1.50;;;13.60;99.90;13.10;98963;;;;556025;254;24207;-74
2022/09/14 05:30:44;;;;;;;1.73;1.17;;;13.60;99.90;13.20;98969;;;;556340;254;24203;-77
2022/09/14 05:33:12;;;;;;;2.20;0.90;;;13.70;99.90;13.20;98970;;;;556229;254;24136;-74
2022/09/14 05:35:40;;;;;;;4.13;1.33;;;13.70;99.90;13.20;98968;;;;556142;254;24216;-77
2022/09/14 05:38:09;;;;;;;3.90;1.40;;;13.70;99.90;13.20;98971;;;;556180;254;25164;-77
2022/09/14 05:40:36;;;;;;;1.80;0.83;;;13.70;99.90;13.20;98968;;;;556230;254;24181;-77
2022/09/14 05:43:04;;;;;;;0.90;0.90;;;13.70;99.90;13.40;98961;;;;555889;254;24152;-77
2022/09/14 05:45:32;;;;;;;2.20;1.17;;;13.80;99.90;13.50;98970;;;;557033;253;24155;-77
2022/09/14 05:48:04;;;;;;;4.53;1.60;;;14.00;99.90;13.60;98972;;;;557051;254;25188;-76
2022/09/14 05:50:28;;;;;;;6.50;1.70;;;14.10;99.90;13.80;98975;;;;552396;254;37557;-77
2022/09/14 05:52:56;;;;;;;1.47;1.37;;;14.20;99.90;14.00;98967;;;;565664;253;24126;-77
2022/09/14 05:55:24;;;;;;;2.93;1.20;;;14.40;99.90;14.40;98968;;;;557141;254;24133;-77
2022/09/14 05:57:52;;;;;;;5.43;1.20;;;14.80;99.90;15.60;98962;;;;557152;254;24169;-77
2022/09/14 06:00:20;;;;;;;4.53;1.00;;;15.80;99.90;16.40;98968;;;;557094;254;24133;-80
2022/09/14 06:02:48;;;;;;;1.13;0.80;;;16.70;99.90;16.80;98973;;;;556509;254;24222;-79
2022/09/14 06:05:19;;;;;;;2.00;1.10;;;17.20;99.90;17.30;98970;;;;556103;254;24206;-78
2022/09/14 06:07:43;;;;;;;2.03;0.73;;;17.70;99.90;17.70;98976;;;;564145;254;24159;-78
2022/09/14 06:10:11;;;;;;;1.67;1.00;;;18.10;99.90;17.80;98972;;;;556290;254;24209;-77
2022/09/14 06:12:39;;;;;;;2.20;1.10;;;18.30;99.90;18.10;98970;;;;564900;254;24163;-77
2022/09/14 06:15:07;;;;;;;1.63;1.07;;;18.50;99.90;18.20;98972;;;;556640;254;24142;-77
2022/09/14 06:17:38;;;;;;;1.37;0.80;;;18.70;99.90;18.30;98979;;;;564829;250;24143;-77
2022/09/14 06:20:03;;;;;;;1.13;0.60;;;18.80;99.90;18.40;98978;;;;562362;252;24137;-76
2022/09/14 06:22:31;;;;;;;1.50;0.60;;;18.90;99.90;18.40;98968;;;;556343;254;24143;-76
2022/09/14 06:25:00;;;;;;;1.33;0.60;;;18.90;99.90;18.50;98970;;;;564549;254;24185;-77
2022/09/14 06:27:29;;;;;;;1.80;0.67;;;18.90;99.90;18.60;98975;;;;556323;254;24129;-76
2022/09/14 06:29:57;;;;;;;0.70;0.70;;;19.00;99.90;18.50;98969;;;;556271;254;24147;-77
2022/09/14 06:32:26;;;;;;;2.87;0.63;;;19.00;99.90;18.40;98974;;;;556282;254;24156;-76
2022/09/14 06:34:53;;;;;;;3.70;0.80;;;18.90;99.90;18.30;98975;;;;556269;254;24164;-77
2022/09/14 06:37:25;;;;;;;1.50;0.83;;;18.80;99.90;18.20;98977;;;;556220;254;24141;-76
2022/09/14 06:39:49;;;;;;;3.07;0.83;;;18.70;99.90;18.10;98983;;;;555938;254;24188;-76
2022/09/14 06:42:17;;;;;;;2.80;1.10;;;18.60;99.90;18.10;98973;;;;556380;254;24138;-75
2022/09/14 06:44:46;;;;;;;1.83;0.80;;;18.60;99.90;18.30;98971;;;;564511;251;25238;-76
2022/09/14 06:47:13;;;;;;;1.03;0.70;;;18.60;99.90;18.70;98976;;;;556340;254;24167;-76
2022/09/14 06:49:41;;;;;;;4.13;1.07;;;19.00;99.90;19.10;98971;;;;556291;254;24143;-76
2022/09/14 06:52:09;;;;;;;1.80;0.90;;;19.40;99.90;19.70;98977;;;;555991;254;24158;-76
2022/09/14 06:54:37;;;;;;;4.57;1.27;;;20.00;99.90;20.30;98983;;;;556318;254;24128;-76
2022/09/14 06:57:05;;;;;;;1.30;0.90;;;20.50;99.90;20.10;98982;;;;557318;253;24158;-77
2022/09/14 06:59:33;;;;;;;1.13;0.67;;;20.60;99.90;19.80;98984;;;;557228;254;24153;-76
2022/09/14 07:02:01;;;;;;;2.03;0.70;;;20.40;99.90;19.50;98981;;;;556867;254;24207;-76
2022/09/14 07:04:30;;;;;;;2.33;0.90;;;19.80;99.90;19.20;98999;;;;556658;254;24158;-76
2022/09/14 07:06:58;;;;;;;1.80;0.60;;;19.80;99.90;19.00;99003;;;;556571;254;24172;-77
2022/09/14 07:09:25;;;;;;;3.30;1.00;;;19.60;99.90;18.80;98998;;;;556406;254;24135;-76
2022/09/14 07:11:53;;;;;;;1.33;0.83;;;19.30;99.90;18.70;99010;;;;556617;254;24177;-76
2022/09/14 07:14:21;;;;;;;1.47;0.60;;;19.20;99.90;18.50;99017;;;;556372;254;24133;-76
2022/09/14 07:16:49;;;;;;;2.20;0.70;;;19.00;99.90;18.60;99021;;;;556368;254;24125;-76
2022/09/14 07:19:21;;;;;;;0.80;0.60;;;19.10;99.90;18.80;99019;;;;556179;254;24157;-76
2022/09/14 07:21:46;;;;;;;0.50;0.50;;;19.20;99.90;19.20;99019;;;;562086;254;24202;-77
2022/09/14 07:24:13;;;;;;;1.63;0.93;;;19.50;99.90;19.60;99022;;;;556633;254;24183;-76
2022/09/14 07:26:41;;;;;;;3.27;0.80;;;19.90;99.90;20.30;99029;;;;556621;254;24130;-78
2022/09/14 07:29:21;;;;;;;1.00;0.80;;;20.50;99.90;22.60;99030;;;;556658;254;24136;-75
2022/09/14 07:31:47;;;;;;;2.00;1.03;;;22.20;99.90;25.50;99029;;;;556317;254;24152;-76
2022/09/14 07:34:15;;;;;;;1.60;1.20;;;25.00;99.90;28.00;99033;;;;564572;254;24190;-75
2022/09/14 07:36:46;;;;;;;2.03;1.00;;;27.60;99.90;29.90;99036;;;;564685;250;24289;-76
2022/09/14 07:39:12;;;;;;;1.97;0.80;;;29.60;92.30;31.40;99044;;;;556475;254;23205;-76
2022/09/14 07:41:45;;;;;;;1.62;1.10;;;31.40;80.80;32.10;99050;;;;564521;254;24189;-77
2022/09/14 07:44:08;;;;;;;1.92;1.00;;;32.30;71.40;33.00;99042;;;;555556;254;23205;-78
2022/09/14 07:46:37;;;;;;;1.40;0.93;;;33.20;67.60;32.90;99041;;;;556279;254;23155;-75
2022/09/14 07:49:05;;;;;;;1.70;1.00;;;33.50;62.80;31.80;99047;;;;556127;250;23168;-76
2022/09/14 07:51:33;;;;;;;4.32;1.00;;;32.80;62.90;31.30;99054;;;;564714;254;24219;-76
2022/09/14 07:54:04;;;;;;;2.28;0.85;;;32.30;62.10;29.50;99052;;;;556317;254;23206;-76
2022/09/14 07:56:34;;;;;;;2.12;1.10;;;31.00;63.60;27.90;99037;;;;555798;254;23154;-76
2022/09/14 07:58:59;;;;;;;2.57;1.30;;;28.00;68.90;26.60;99048;;;;555945;254;23168;-76
2022/09/14 08:01:28;;;;;;;2.23;1.00;;;27.90;69.10;25.50;99042;;;;564534;254;23164;-76
2022/09/14 08:03:58;;;;;;;3.80;1.30;;;25.80;76.60;24.70;99054;;;;556076;254;23194;-78
2022/09/14 08:06:27;;;;;;;3.80;1.03;;;25.70;76.50;23.90;99054;;;;556196;254;23175;-76
2022/09/14 08:08:55;;;;;;;2.70;1.37;;;24.90;79.60;23.30;99051;;;;565528;253;24200;-75
2022/09/14 08:11:21;;;;;;;6.63;1.90;;;23.60;86.80;22.80;99054;;;;556145;254;24164;-76
2022/09/14 08:13:50;;;;;;;1.97;1.43;;;23.20;89.40;22.60;99048;;;;565318;254;24140;-76
2022/09/14 08:16:19;;;;;;;8.70;1.50;;;23.10;89.30;22.30;99044;;;;557365;254;24144;-76
2022/09/14 08:18:50;;;;;;;1.97;1.00;;;22.80;91.00;22.10;99056;;;;565165;254;24266;-76
2022/09/14 08:21:17;;;;;;;1.63;1.20;;;22.60;91.40;22.00;99040;;;;557033;254;24191;-75
2022/09/14 08:23:46;;;;;;;3.10;0.90;;;22.40;92.60;22.00;99042;;;;557174;254;24144;-76
2022/09/14 08:26:13;;;;;;;3.67;0.93;;;22.40;93.00;23.50;99047;;;;557494;254;24225;-76
2022/09/14 08:28:45;;;;;;;3.87;1.33;;;23.40;93.40;24.60;99048;;;;556663;254;24172;-77
2022/09/14 08:31:16;;;;;;;2.53;1.30;;;25.80;89.80;25.90;99056;;;;564874;250;24148;-75
2022/09/14 08:33:46;;;;;;;4.40;1.37;;;25.80;89.80;26.70;99053;;;;556653;254;23154;-76
2022/09/14 08:36:14;;;;;;;2.37;1.10;;;26.90;85.00;28.30;99040;;;;556613;254;23146;-77
2022/09/14 08:38:46;;;;;;;1.90;1.20;;;28.50;78.80;28.60;99052;;;;557386;254;24169;-76
2022/09/14 08:41:35;;;;;;;1.60;1.10;;;29.00;74.00;28.60;99044;;;;556903;254;23185;-75
2022/09/14 08:44:33;;;;;;;2.57;1.10;;;29.10;71.20;29.20;99062;;;;556623;254;23154;-77
2022/09/14 08:47:16;;;;;;;2.00;1.20;;;29.60;69.70;27.70;99055;;;;557318;254;24153;-75
2022/09/14 08:50:15;;;;;;;4.17;1.27;;;28.80;69.00;26.50;99051;;;;564938;250;24263;-77
2022/09/14 08:52:44;;;;;;;2.73;1.13;;;27.70;72.30;27.50;99042;;;;564306;254;23162;-76
2022/09/14 08:55:42;;;;;;;3.10;1.20;;;28.00;74.00;27.90;99054;;;;556883;254;23231;-75
2022/09/14 08:58:46;;;;;;;2.30;1.10;;;28.40;73.10;27.80;99052;;;;557221;254;23150;-79
2022/09/14 09:01:50;;;;;;;3.00;1.17;;;28.50;71.20;27.20;99069;;;;556925;254;23158;-76
2022/09/14 09:04:45;;;;;;;1.70;0.80;;;28.00;72.10;26.70;99064;;;;564815;250;24153;-75
2022/09/14 09:07:32;;;;;;;4.50;1.20;;;27.10;75.00;26.30;99063;;;;556639;254;24136;-77
2022/09/14 09:10:04;;;;;;;2.83;1.17;;;27.00;74.80;26.00;99068;;;;565150;251;23176;-75
2022/09/14 09:12:43;;;;;;;0.93;0.90;;;26.60;76.50;25.80;99072;;;;556690;254;24225;-74
2022/09/14 09:15:28;;;;;;;2.77;0.97;;;26.40;77.10;25.30;99070;;;;556302;254;23272;-76
2022/09/14 09:17:59;;;;;;;3.70;1.00;;;25.90;78.10;24.80;99063;;;;564848;254;24134;-76
2022/09/14 09:20:30;;;;;;;2.33;1.10;;;25.50;80.10;24.60;99070;;;;557485;253;26357;-76
2022/09/14 09:23:16;;;;;;;0.63;0.60;;;25.20;80.70;24.70;99080;;;;557507;254;24260;-76
2022/09/14 09:26:12;;;;;;;3.40;0.73;;;25.10;81.30;25.00;99064;;;;557020;254;24188;-75
2022/09/14 09:28:49;;;;;;;3.90;1.13;;;26.50;80.90;26.50;99078;;;;556789;254;24195;-76
2022/09/14 09:31:20;;;;;;;1.40;1.00;;;26.50;80.90;27.50;99079;;;;556932;254;23158;-76
2022/09/14 09:33:46;;;;;;;1.40;1.13;;;29.20;74.90;29.00;99080;;;;556629;254;23248;-76
2022/09/14 09:36:14;;;;;;;4.53;1.13;;;29.10;73.90;29.80;99088;;;;556926;254;23177;-76
2022/09/14 09:38:45;;;;;;;2.10;1.05;;;30.30;70.40;30.00;99085;;;;564989;250;23137;-77
2022/09/14 09:41:15;;;;;;;1.37;0.70;;;30.80;68.00;29.50;99084;;;;556365;254;23150;-76
2022/09/14 09:44:05;;;;;;;2.78;0.77;;;30.50;66.90;28.80;99088;;;;560007;254;23162;-76
2022/09/14 09:46:50;;;;;;;1.20;1.00;;;30.00;67.30;28.50;99074;;;;556755;254;23159;-75
2022/09/14 09:49:21;;;;;;;3.10;0.63;;;29.50;68.60;28.30;99079;;;;556701;254;23171;-75
2022/09/14 09:51:53;;;;;;;3.03;1.13;;;29.20;69.30;28.50;99082;;;;556564;254;23187;-75
2022/09/14 09:54:26;;;;;;;1.42;0.80;;;29.10;69.20;29.30;99075;;;;564089;247;23167;-75
2022/09/14 09:56:56;;;;;;;1.37;0.80;;;30.90;66.80;30.40;99073;;;;555614;254;23155;-75
2022/09/14 09:59:36;;;;;;;2.20;0.77;;;30.90;66.00;31.60;99081;;;;564022;254;23216;-76
2022/09/14 10:02:28;;;;;;;3.12;0.80;;;32.30;62.60;32.20;99078;;;;555968;254;24243;-77
2022/09/14 10:05:06;;;;;;;2.37;0.95;;;33.30;59.70;31.70;99080;;;;556308;254;23187;-76
2022/09/14 10:07:37;;;;;;;0.93;0.88;;;32.20;58.50;30.60;99080;;;;555896;254;25216;-77
2022/09/14 10:10:04;;;;;;;2.45;1.33;;;32.20;58.50;30.10;99069;;;;556378;253;23151;-76
2022/09/14 10:12:36;;;;;;;3.28;0.80;;;31.60;59.60;29.40;99074;;;;555561;254;23197;-76
2022/09/14 10:15:18;;;;;;;1.73;0.85;;;30.70;60.80;28.60;99081;;;;555842;254;23169;-77
2022/09/14 10:18:13;;;;;;;1.73;0.82;;;29.90;63.00;27.90;99076;;;;556170;254;23197;-75
2022/09/14 10:21:05;;;;;;;1.60;0.83;;;29.00;65.20;27.20;99086;;;;564609;254;23162;-76
2022/09/14 10:23:35;;;;;;;1.70;0.93;;;28.20;66.00;26.20;99087;;;;556201;254;23166;-75
2022/09/14 10:26:10;;;;;;;4.07;1.20;;;27.20;68.10;25.60;99085;;;;555812;254;23152;-75
2022/09/14 10:28:41;;;;;;;3.80;1.10;;;26.50;71.40;25.30;99091;;;;554661;254;24213;-75
2022/09/14 10:31:12;;;;;;;2.07;0.97;;;26.10;73.90;25.20;99086;;;;556561;253;23220;-76
2022/09/14 10:33:41;;;;;;;6.00;1.17;;;25.80;74.30;25.10;99079;;;;556783;254;24197;-76
2022/09/14 10:36:14;;;;;;;2.47;0.93;;;25.70;75.50;24.80;99081;;;;556675;254;24207;-77
2022/09/14 10:38:51;;;;;;;2.07;0.93;;;25.40;76.40;24.50;99078;;;;565281;250;24180;-76
2022/09/14 10:41:26;;;;;;;3.37;1.10;;;25.10;77.10;24.10;99093;;;;564926;250;24232;-76
2022/09/14 10:44:24;;;;;;;2.13;1.00;;;24.70;77.60;23.60;99082;;;;556569;254;24199;-75
2022/09/14 10:47:23;;;;;;;3.97;0.83;;;24.30;79.20;23.30;99072;;;;556817;254;24163;-76
2022/09/14 10:50:32;;;;;;;1.17;0.80;;;23.40;82.90;22.90;99076;;;;556302;254;24157;-76
2022/09/14 10:53:36;;;;;;;4.07;1.10;;;23.40;82.90;22.60;99086;;;;557027;254;24186;-76
2022/09/14 10:56:25;;;;;;;3.67;1.10;;;23.10;84.10;22.50;99085;;;;564662;254;24168;-77
2022/09/14 10:59:02;;;;;;;0.97;0.83;;;23.00;84.90;22.50;99075;;;;556368;254;24145;-76
2022/09/14 11:01:36;;;;;;;1.60;1.00;;;22.90;84.80;22.40;99082;;;;555378;254;24229;-76
2022/09/14 11:04:22;;;;;;;2.33;0.87;;;22.80;85.30;22.40;99080;;;;564380;250;24211;-75
2022/09/14 11:06:52;;;;;;;1.03;0.97;;;22.90;85.60;22.50;99070;;;;556282;254;24165;-75
2022/09/14 11:09:26;;;;;;;9.00;1.33;;;23.00;86.40;22.80;99069;;;;563692;254;24210;-76
2022/09/14 11:12:03;;;;;;;3.70;1.13;;;23.10;86.90;22.80;99077;;;;564328;250;24171;-78
2022/09/14 11:14:54;;;;;;;3.47;1.47;;;23.30;85.90;22.90;99068;;;;564483;254;24186;-77
2022/09/14 11:17:43;;;;;;;1.97;0.93;;;23.30;85.60;22.80;99072;;;;556247;254;24176;-75
2022/09/14 11:20:17;;;;;;;3.73;0.90;;;23.30;85.40;22.70;99069;;;;556212;254;24166;-75
2022/09/14 11:23:15;;;;;;;2.10;0.73;;;23.20;85.20;22.70;99074;;;;564539;250;24159;-76
2022/09/14 11:25:45;;;;;;;7.17;1.20;;;23.20;85.00;22.60;99080;;;;556793;254;24151;-77
2022/09/14 11:28:16;;;;;;;3.20;0.90;;;23.10;85.70;22.50;99081;;;;559578;254;24157;-75
2022/09/14 11:30:56;;;;;;;4.60;0.90;;;23.00;85.90;22.40;99071;;;;555843;254;24145;-75
2022/09/14 11:33:36;;;;;;;1.17;0.90;;;22.90;85.60;22.10;99073;;;;549710;254;24137;-77
2022/09/14 11:36:27;;;;;;;3.10;1.10;;;22.70;86.00;22.00;99076;;;;555694;254;24175;-75
2022/09/14 11:39:02;;;;;;;7.83;1.33;;;22.60;87.10;22.00;99073;;;;563807;251;24173;-75
2022/09/14 11:41:32;;;;;;;2.67;0.87;;;22.60;88.00;22.10;99087;;;;556048;252;24141;-77
2022/09/14 11:44:02;;;;;;;9.27;1.40;;;22.60;88.50;22.20;99083;;;;557150;253;24168;-76